Terminal Aerodrome Forecast
Issued by NWS Louisville, KY

Home | Current Version | Previous Version | Text Only | Print | Product List | Glossary On
Versions: 1 2 3 4 5 6 7 8 9 10 11 12 13 14 15 16 17 18
000
FTUS43 KLMK 241120
TAFBWG
TAF
KBWG 241120Z 2412/2512 VRB03KT P6SM SKC
      TEMPO 2412/2413 5SM BR
     FM241500 21006KT P6SM SCT045
      TEMPO 2421/2501 BKN050
     FM250200 19003KT P6SM SCT250
      TEMPO 2510/2512 4SM BR=

USA.gov is the U.S. government's official web portal to all federal, state and local government web resources and services.